createdAt,value
2018-03-01T00:01:23.844Z,-5.80
2018-03-01T00:03:51.292Z,-5.80
2018-03-01T00:06:18.746Z,-5.90
2018-03-01T00:08:46.192Z,-5.80
2018-03-01T00:11:13.660Z,-5.80
2018-03-01T00:13:41.100Z,-5.80
2018-03-01T00:16:08.545Z,-5.70
2018-03-01T00:18:36.773Z,-5.70
2018-03-01T00:21:04.228Z,-5.70
2018-03-01T00:23:31.691Z,-5.60
2018-03-01T00:25:59.140Z,-5.70
2018-03-01T00:28:26.598Z,-5.70
2018-03-01T00:30:54.822Z,-5.70
2018-03-01T00:33:22.273Z,-5.70
2018-03-01T00:35:50.487Z,-5.70
2018-03-01T00:38:17.928Z,-5.70
2018-03-01T00:40:45.373Z,-5.70
2018-03-01T00:43:14.781Z,-5.60
2018-03-01T00:45:42.244Z,-5.60
2018-03-01T00:48:09.688Z,-5.60
2018-03-01T00:50:37.132Z,-5.70
2018-03-01T00:53:05.363Z,-5.60
2018-03-01T00:55:32.787Z,-5.60
2018-03-01T00:58:00.236Z,-5.50
2018-03-01T01:00:28.438Z,-5.50
2018-03-01T01:02:55.893Z,-5.50
2018-03-01T01:05:23.349Z,-5.40
2018-03-01T01:07:50.792Z,-5.40
2018-03-01T01:10:21.401Z,-5.40
2018-03-01T01:12:49.635Z,-5.30
2018-03-01T01:15:17.092Z,-5.30
2018-03-01T01:17:44.540Z,-5.30
2018-03-01T01:20:12.062Z,-5.30
2018-03-01T01:22:40.269Z,-5.30
2018-03-01T01:25:07.725Z,-5.30
2018-03-01T01:27:35.180Z,-5.30
2018-03-01T01:30:02.621Z,-5.30
2018-03-01T01:32:30.067Z,-5.30
2018-03-01T01:34:57.510Z,-5.30
2018-03-01T01:37:25.726Z,-5.30
2018-03-01T01:39:53.183Z,-5.30
2018-03-01T01:42:20.641Z,-5.30
2018-03-01T01:44:48.098Z,-5.20
2018-03-01T01:47:15.540Z,-5.20
2018-03-01T01:49:42.984Z,-5.20
2018-03-01T01:52:10.424Z,-5.30
2018-03-01T01:54:38.628Z,-5.20
2018-03-01T01:57:06.098Z,-5.20
2018-03-01T01:59:33.515Z,-5.20
2018-03-01T02:02:01.729Z,-5.30
2018-03-01T02:04:29.175Z,-5.30
2018-03-01T02:06:56.624Z,-5.30
2018-03-01T02:09:24.064Z,-5.30
2018-03-01T02:11:52.280Z,-5.40
2018-03-01T02:14:19.737Z,-5.40
2018-03-01T02:16:47.174Z,-5.30
2018-03-01T02:19:14.620Z,-5.40
2018-03-01T02:21:42.841Z,-5.40
2018-03-01T02:24:10.353Z,-5.40
2018-03-01T02:26:38.570Z,-5.30
2018-03-01T02:29:06.029Z,-5.30
2018-03-01T02:31:33.476Z,-5.30
2018-03-01T02:34:00.945Z,-5.50
2018-03-01T02:36:33.346Z,-5.40
2018-03-01T02:39:00.848Z,-5.40
2018-03-01T02:41:28.389Z,-5.40
2018-03-01T02:43:56.604Z,-5.50
2018-03-01T02:46:24.057Z,-5.50
2018-03-01T02:48:51.512Z,-5.40
2018-03-01T02:51:18.952Z,-5.40
2018-03-01T02:53:46.391Z,-5.40
2018-03-01T02:56:14.610Z,-5.40
2018-03-01T02:58:42.073Z,-5.50
2018-03-01T03:01:09.536Z,-5.50
2018-03-01T03:03:36.986Z,-5.50
2018-03-01T03:06:04.439Z,-5.50
2018-03-01T03:08:31.972Z,-5.50
2018-03-01T03:10:59.414Z,-5.50
2018-03-01T03:13:27.640Z,-5.50
2018-03-01T03:15:55.088Z,-5.50
2018-03-01T03:18:22.529Z,-5.50
2018-03-01T03:20:49.984Z,-5.50
2018-03-01T03:23:17.454Z,-5.40
2018-03-01T03:25:44.918Z,-5.50
2018-03-01T03:28:12.376Z,-5.50
2018-03-01T03:30:40.589Z,-5.50
2018-03-01T03:33:08.096Z,-5.50
2018-03-01T03:35:35.541Z,-5.40
2018-03-01T03:38:03.093Z,-5.50
2018-03-01T03:40:30.546Z,-5.50
2018-03-01T03:42:58.028Z,-5.40
2018-03-01T03:45:25.567Z,-5.50
2018-03-01T03:47:53.016Z,-5.60
2018-03-01T03:50:20.472Z,-5.50
2018-03-01T03:52:47.921Z,-5.60
2018-03-01T03:55:16.141Z,-5.60
2018-03-01T03:57:43.597Z,-5.60
2018-03-01T04:00:11.050Z,-5.50
2018-03-01T04:02:38.498Z,-5.40
2018-03-01T04:05:05.960Z,-5.50
2018-03-01T04:07:33.418Z,-5.50
2018-03-01T04:10:00.886Z,-5.50
2018-03-01T04:12:28.348Z,-5.60
2018-03-01T04:14:55.807Z,-5.60
2018-03-01T04:17:23.261Z,-5.60
2018-03-01T04:19:50.728Z,-5.50
2018-03-01T04:22:18.180Z,-5.50
2018-03-01T04:24:45.700Z,-5.50
2018-03-01T04:27:13.142Z,-5.50
2018-03-01T04:29:41.384Z,-5.50
2018-03-01T04:32:08.838Z,-5.50
2018-03-01T04:34:36.367Z,-5.50
2018-03-01T04:37:03.825Z,-5.60
2018-03-01T04:39:31.304Z,-5.50
2018-03-01T04:41:58.770Z,-5.60
2018-03-01T04:44:26.310Z,-5.50
2018-03-01T04:46:53.798Z,-5.40
2018-03-01T04:49:21.268Z,-5.50
2018-03-01T04:51:48.731Z,-5.40
2018-03-01T04:54:16.197Z,-5.40
2018-03-01T04:56:43.642Z,-5.30
2018-03-01T04:59:11.109Z,-5.40
2018-03-01T05:01:39.421Z,-5.50
2018-03-01T05:04:06.888Z,-5.50
2018-03-01T05:06:34.325Z,-5.40
2018-03-01T05:09:01.892Z,-5.40
2018-03-01T05:11:29.346Z,-5.40
2018-03-01T05:13:56.814Z,-5.50
2018-03-01T05:16:24.276Z,-5.40
2018-03-01T05:18:51.787Z,-5.60
2018-03-01T05:21:19.225Z,-5.50
2018-03-01T05:23:46.690Z,-5.40
2018-03-01T05:26:14.176Z,-5.40
2018-03-01T05:28:42.410Z,-5.40
2018-03-01T05:31:09.865Z,-5.40
2018-03-01T05:33:37.333Z,-5.30
2018-03-01T05:36:04.787Z,-5.30
2018-03-01T05:38:32.260Z,-5.40
2018-03-01T05:41:00.334Z,-5.30
2018-03-01T05:43:28.577Z,-5.30
2018-03-01T05:45:56.241Z,-5.30
2018-03-01T05:48:23.710Z,-5.30
2018-03-01T05:50:51.937Z,-5.30
2018-03-01T05:53:19.407Z,-5.30
2018-03-01T05:55:46.852Z,-5.30
2018-03-01T05:58:14.408Z,-5.40
2018-03-01T06:00:42.701Z,-5.40
2018-03-01T06:03:10.258Z,-5.40
2018-03-01T06:05:37.740Z,-5.40
2018-03-01T06:08:05.453Z,-5.30
2018-03-01T06:10:32.978Z,-5.30
2018-03-01T06:13:01.199Z,-5.30
2018-03-01T06:15:28.690Z,-5.30
2018-03-01T06:17:56.142Z,-5.20
2018-03-01T06:20:23.613Z,-5.20
2018-03-01T06:22:51.071Z,-5.30
2018-03-01T06:25:19.661Z,-5.30
2018-03-01T06:27:47.129Z,-5.20
2018-03-01T06:30:14.615Z,-5.20
2018-03-01T06:32:42.112Z,-5.30
2018-03-01T06:35:09.659Z,-5.30
2018-03-01T06:37:37.115Z,-5.30
2018-03-01T06:40:04.727Z,-5.30
2018-03-01T06:42:32.321Z,-5.30
2018-03-01T06:45:01.626Z,-5.30
2018-03-01T06:47:29.098Z,-5.30
2018-03-01T06:49:56.561Z,-5.20
2018-03-01T06:52:24.017Z,-5.30
2018-03-01T06:54:51.476Z,-5.20
2018-03-01T06:57:18.939Z,-5.20
2018-03-01T06:59:46.384Z,-5.30
2018-03-01T07:02:13.866Z,-5.20
2018-03-01T07:04:41.339Z,-5.20
2018-03-01T07:07:08.799Z,-5.20
2018-03-01T07:09:36.251Z,-5.20
2018-03-01T07:12:03.712Z,-5.20
2018-03-01T07:14:31.171Z,-5.10
2018-03-01T07:16:58.658Z,-5.30
2018-03-01T07:19:26.084Z,-5.30
2018-03-01T07:21:53.547Z,-5.20
2018-03-01T07:24:21.011Z,-5.20
2018-03-01T07:26:48.506Z,-5.30
2018-03-01T07:29:16.729Z,-5.20
2018-03-01T07:31:45.350Z,-5.20
2018-03-01T07:34:12.802Z,-5.20
2018-03-01T07:36:40.260Z,-5.20
2018-03-01T07:39:07.718Z,-5.10
2018-03-01T07:41:35.937Z,-5.20
2018-03-01T07:44:03.387Z,-5.20
2018-03-01T07:46:30.850Z,-5.00
2018-03-01T07:48:58.339Z,-4.90
2018-03-01T07:51:25.849Z,-4.90
2018-03-01T07:53:53.337Z,-4.90
2018-03-01T07:56:20.881Z,-4.90
2018-03-01T07:58:48.323Z,-4.70
2018-03-01T08:01:16.815Z,-4.70
2018-03-01T08:03:44.277Z,-4.70
2018-03-01T08:06:11.728Z,-4.80
2018-03-01T08:08:39.184Z,-4.70
2018-03-01T08:11:06.682Z,-4.70
2018-03-01T08:13:34.149Z,-4.70
2018-03-01T08:16:01.657Z,-4.60
2018-03-01T08:18:29.115Z,-4.70
2018-03-01T08:20:56.569Z,-4.70
2018-03-01T08:23:24.045Z,-4.50
2018-03-01T08:25:51.513Z,-4.40
2018-03-01T08:28:19.041Z,-4.40
2018-03-01T08:30:47.262Z,-4.10
2018-03-01T08:33:14.725Z,-4.10
2018-03-01T08:35:42.190Z,-4.10
2018-03-01T08:38:09.720Z,-4.00
2018-03-01T08:40:37.251Z,-4.10
2018-03-01T08:43:05.751Z,-4.10
2018-03-01T08:45:34.233Z,-4.00
2018-03-01T08:48:01.693Z,-3.90
2018-03-01T08:50:29.233Z,-3.80
2018-03-01T08:52:57.717Z,-3.80
2018-03-01T08:55:25.180Z,-3.80
2018-03-01T08:57:52.627Z,-3.80
2018-03-01T09:00:20.846Z,-3.70
2018-03-01T09:02:48.286Z,-3.70
2018-03-01T09:05:15.824Z,-3.70
2018-03-01T09:07:43.262Z,-3.80
2018-03-01T09:10:12.477Z,-3.60
2018-03-01T09:12:39.928Z,-3.60
2018-03-01T09:15:07.383Z,-3.40
2018-03-01T09:17:35.657Z,-2.80
2018-03-01T09:20:03.894Z,-2.90
2018-03-01T09:22:31.374Z,-2.90
2018-03-01T09:24:58.866Z,-2.60
2018-03-01T09:27:26.302Z,-2.40
2018-03-01T09:29:54.535Z,-1.80
2018-03-01T09:32:22.055Z,-1.80
2018-03-01T09:34:49.675Z,-1.90
2018-03-01T09:37:17.168Z,-1.50
2018-03-01T09:39:44.617Z,-1.10
2018-03-01T09:42:13.274Z,-1.50
2018-03-01T09:44:41.554Z,-1.30
2018-03-01T09:47:09.048Z,-1.30
2018-03-01T09:49:36.491Z,-1.20
2018-03-01T09:52:04.779Z,-0.40
2018-03-01T09:54:32.230Z,-0.40
2018-03-01T09:56:59.695Z,-0.20
2018-03-01T09:59:27.149Z,0.20
2018-03-01T10:01:55.457Z,1.20
2018-03-01T10:04:22.904Z,1.10
2018-03-01T10:06:50.380Z,1.10
2018-03-01T10:09:17.824Z,1.40
2018-03-01T10:11:45.275Z,1.50
2018-03-01T10:14:12.725Z,1.30
2018-03-01T10:16:40.188Z,1.30
2018-03-01T10:19:07.631Z,1.50
2018-03-01T10:21:35.079Z,1.70
2018-03-01T10:24:03.289Z,1.80
2018-03-01T10:26:30.728Z,1.80
2018-03-01T10:28:58.197Z,1.90
2018-03-01T10:31:25.636Z,2.00
2018-03-01T10:33:53.096Z,2.00
2018-03-01T10:36:20.553Z,1.80
2018-03-01T10:38:47.984Z,1.90
2018-03-01T10:41:16.218Z,1.60
2018-03-01T10:43:44.421Z,1.10
2018-03-01T10:46:11.965Z,1.10
2018-03-01T10:48:39.505Z,1.40
2018-03-01T10:51:07.013Z,1.60
2018-03-01T10:53:35.414Z,1.60
2018-03-01T10:56:03.615Z,1.30
2018-03-01T10:58:31.174Z,1.30
2018-03-01T11:00:59.649Z,0.90
2018-03-01T11:03:27.230Z,0.70
2018-03-01T11:05:54.679Z,0.90
2018-03-01T11:08:22.154Z,0.60
2018-03-01T11:10:49.593Z,0.70
2018-03-01T11:13:17.175Z,0.90
2018-03-01T11:15:47.323Z,1.20
2018-03-01T11:18:14.882Z,1.40
2018-03-01T11:20:42.437Z,1.60
2018-03-01T11:23:10.184Z,1.60
2018-03-01T11:25:39.018Z,1.10
2018-03-01T11:28:10.512Z,1.40
2018-03-01T11:30:38.489Z,1.40
2018-03-01T11:33:06.074Z,1.50
2018-03-01T11:35:33.522Z,1.50
2018-03-01T11:38:00.963Z,1.30
2018-03-01T11:40:28.430Z,1.40
2018-03-01T11:42:55.915Z,1.40
2018-03-01T11:45:23.389Z,1.50
2018-03-01T11:47:50.820Z,1.50
2018-03-01T11:50:19.052Z,1.30
2018-03-01T11:52:46.489Z,1.20
2018-03-01T11:55:13.927Z,1.30
2018-03-01T11:57:41.376Z,1.20
2018-03-01T12:00:09.614Z,1.20
2018-03-01T12:02:37.070Z,1.20
2018-03-01T12:05:04.535Z,1.00
2018-03-01T12:07:31.990Z,1.00
2018-03-01T12:09:59.445Z,1.20
2018-03-01T12:12:26.902Z,1.30
2018-03-01T12:14:54.388Z,1.50
2018-03-01T12:17:22.603Z,1.30
2018-03-01T12:19:50.134Z,1.30
2018-03-01T12:22:18.420Z,1.40
2018-03-01T12:24:45.866Z,1.40
2018-03-01T12:27:14.102Z,1.50
2018-03-01T12:29:41.564Z,1.50
2018-03-01T12:32:09.024Z,1.50
2018-03-01T12:34:36.475Z,1.50
2018-03-01T12:37:03.929Z,1.60
2018-03-01T12:39:31.390Z,1.60
2018-03-01T12:41:58.837Z,1.60
2018-03-01T12:44:27.048Z,1.50
2018-03-01T12:46:54.494Z,1.50
2018-03-01T12:49:21.960Z,1.60
2018-03-01T12:51:49.481Z,1.70
2018-03-01T12:54:17.832Z,1.70
2018-03-01T12:56:45.477Z,1.80
2018-03-01T12:59:12.942Z,1.80
2018-03-01T13:01:40.390Z,1.80
2018-03-01T13:04:08.605Z,1.60
2018-03-01T13:06:36.078Z,1.60
2018-03-01T13:09:03.604Z,1.70
2018-03-01T13:11:31.051Z,1.70
2018-03-01T13:13:58.508Z,1.60
2018-03-01T13:16:25.945Z,1.60
2018-03-01T13:18:54.190Z,1.80
2018-03-01T13:21:21.730Z,1.70
2018-03-01T13:23:49.257Z,1.80
2018-03-01T13:26:16.706Z,1.80
2018-03-01T13:28:44.926Z,1.70
2018-03-01T13:31:14.348Z,1.60
2018-03-01T13:36:50.489Z,1.60
2018-03-01T13:39:17.937Z,1.60
2018-03-01T13:41:45.377Z,1.70
2018-03-01T13:44:13.620Z,1.60
2018-03-01T13:46:41.521Z,1.60
2018-03-01T13:49:08.978Z,1.50
2018-03-01T13:51:37.189Z,1.60
2018-03-01T13:54:04.659Z,1.60
2018-03-01T13:56:32.182Z,1.70
2018-03-01T13:58:59.644Z,1.80
2018-03-01T14:01:27.154Z,1.90
2018-03-01T14:03:54.617Z,2.00
2018-03-01T14:06:24.036Z,2.00
2018-03-01T14:08:54.938Z,2.00
2018-03-01T14:11:22.392Z,1.90
2018-03-01T14:13:49.852Z,1.90
2018-03-01T14:16:17.321Z,1.90
2018-03-01T14:18:45.539Z,2.00
2018-03-01T14:21:24.714Z,2.10
2018-03-01T14:23:53.763Z,2.10
2018-03-01T14:26:21.255Z,2.10
2018-03-01T14:28:51.201Z,2.20
2018-03-01T14:31:18.659Z,2.20
2018-03-01T14:33:46.113Z,2.20
2018-03-01T14:36:13.620Z,2.30
2018-03-01T14:38:41.086Z,2.20
2018-03-01T14:41:08.536Z,2.20
2018-03-01T14:43:35.993Z,2.20
2018-03-01T14:46:03.430Z,2.30
2018-03-01T14:48:31.660Z,2.40
2018-03-01T14:50:59.111Z,2.40
2018-03-01T14:53:26.564Z,2.50
2018-03-01T14:55:54.034Z,2.50
2018-03-01T14:58:21.485Z,2.30
2018-03-01T15:00:48.927Z,2.40
2018-03-01T15:03:16.377Z,2.30
2018-03-01T15:05:43.817Z,2.40
2018-03-01T15:08:11.368Z,2.40
2018-03-01T15:10:39.581Z,2.40
2018-03-01T15:13:07.042Z,2.40
2018-03-01T15:15:34.488Z,2.40
2018-03-01T15:18:01.944Z,2.40
2018-03-01T15:20:29.399Z,2.50
2018-03-01T15:22:56.837Z,2.40
2018-03-01T15:25:24.297Z,2.40
2018-03-01T15:27:51.758Z,2.20
2018-03-01T15:30:20.025Z,2.30
2018-03-01T15:32:48.229Z,2.20
2018-03-01T15:35:15.688Z,2.20
2018-03-01T15:37:43.148Z,2.20
2018-03-01T15:40:10.609Z,2.30
2018-03-01T15:42:38.060Z,2.20
2018-03-01T15:45:05.528Z,2.20
2018-03-01T15:47:32.972Z,2.20
2018-03-01T15:50:00.471Z,2.20
2018-03-01T15:52:27.961Z,2.10
2018-03-01T15:54:56.420Z,2.10
2018-03-01T15:57:25.037Z,2.10
2018-03-01T15:59:52.500Z,2.10
2018-03-01T16:02:19.948Z,2.10
2018-03-01T16:04:47.400Z,2.10
2018-03-01T16:07:15.618Z,2.20
2018-03-01T16:09:43.129Z,2.20
2018-03-01T16:12:11.347Z,2.10
2018-03-01T16:14:39.571Z,2.10
2018-03-01T16:17:07.789Z,2.20
2018-03-01T16:19:35.485Z,2.10
2018-03-01T16:22:02.974Z,2.00
2018-03-01T16:24:31.235Z,2.00
2018-03-01T16:26:58.677Z,2.00
2018-03-01T16:29:26.130Z,2.00
2018-03-01T16:31:53.604Z,2.00
2018-03-01T16:34:21.064Z,2.10
2018-03-01T16:36:48.496Z,1.90
2018-03-01T16:39:15.946Z,1.90
2018-03-01T16:41:43.412Z,1.90
2018-03-01T16:44:10.871Z,2.00
2018-03-01T16:46:38.931Z,2.00
2018-03-01T16:49:06.379Z,2.10
2018-03-01T16:51:33.832Z,2.00
2018-03-01T16:54:01.495Z,2.10
2018-03-01T16:56:28.958Z,2.10
2018-03-01T16:58:56.452Z,1.90
2018-03-01T17:01:23.904Z,1.90
2018-03-01T17:03:51.395Z,2.00
2018-03-01T17:06:19.872Z,1.90
2018-03-01T17:08:48.106Z,1.90
2018-03-01T17:11:15.554Z,1.90
2018-03-01T17:13:43.009Z,1.80
2018-03-01T17:16:10.539Z,1.90
2018-03-01T17:18:38.000Z,1.80
2018-03-01T17:21:05.447Z,1.80
2018-03-01T17:23:32.902Z,1.70
2018-03-01T17:26:00.424Z,1.80
2018-03-01T17:28:27.964Z,1.80
2018-03-01T17:30:55.406Z,1.80
2018-03-01T17:33:23.010Z,1.80
2018-03-01T17:35:50.443Z,1.70
2018-03-01T17:38:17.952Z,1.70
2018-03-01T17:40:45.424Z,1.80
2018-03-01T17:43:12.910Z,1.80
2018-03-01T17:45:40.416Z,1.80
2018-03-01T17:48:08.649Z,1.70
2018-03-01T17:50:36.110Z,1.70
2018-03-01T17:53:03.569Z,1.70
2018-03-01T17:55:31.028Z,1.70
2018-03-01T17:57:58.477Z,1.70
2018-03-01T18:00:25.973Z,1.70
2018-03-01T18:02:53.388Z,1.70
2018-03-01T18:05:20.858Z,1.70
2018-03-01T18:07:49.893Z,1.70
2018-03-01T18:10:18.118Z,1.70
2018-03-01T18:12:45.562Z,1.70
2018-03-01T18:15:14.140Z,1.80
2018-03-01T18:17:41.586Z,1.80
2018-03-01T18:20:09.037Z,1.80
2018-03-01T18:22:36.480Z,1.60
2018-03-01T18:25:03.931Z,1.60
2018-03-01T18:27:32.145Z,1.70
2018-03-01T18:29:59.604Z,1.70
2018-03-01T18:32:27.053Z,1.60
2018-03-01T18:34:54.589Z,1.60
2018-03-01T18:37:22.025Z,1.60
2018-03-01T18:39:50.313Z,1.70
2018-03-01T18:42:18.581Z,1.70
2018-03-01T18:44:46.799Z,1.80
2018-03-01T18:47:14.253Z,1.80
2018-03-01T18:49:41.765Z,1.70
2018-03-01T18:52:10.057Z,1.70
2018-03-01T18:54:38.274Z,1.70
2018-03-01T18:57:05.729Z,1.60
2018-03-01T18:59:33.182Z,1.50
2018-03-01T19:02:00.653Z,1.50
2018-03-01T19:04:28.106Z,1.50
2018-03-01T19:06:55.556Z,1.50
2018-03-01T19:09:23.011Z,1.50
2018-03-01T19:11:50.505Z,1.50
2018-03-01T19:14:17.954Z,1.50
2018-03-01T19:16:45.398Z,1.50
2018-03-01T19:19:12.845Z,1.40
2018-03-01T19:21:40.301Z,1.40
2018-03-01T19:24:07.756Z,1.40
2018-03-01T19:26:35.216Z,1.30
2018-03-01T19:29:02.768Z,1.30
2018-03-01T19:31:30.228Z,1.30
2018-03-01T19:33:57.677Z,1.20
2018-03-01T19:36:25.127Z,1.20
2018-03-01T19:38:52.582Z,1.20
2018-03-01T19:41:20.028Z,1.20
2018-03-01T19:43:47.476Z,1.30
2018-03-01T19:46:15.702Z,1.20
2018-03-01T19:48:43.210Z,1.20
2018-03-01T19:51:11.435Z,1.20
2018-03-01T19:53:38.890Z,1.20
2018-03-01T19:56:06.349Z,1.30
2018-03-01T19:58:33.796Z,1.30
2018-03-01T20:01:01.254Z,1.20
2018-03-01T20:03:28.703Z,1.20
2018-03-01T20:05:56.176Z,1.10
2018-03-01T20:08:23.695Z,1.10
2018-03-01T20:10:52.040Z,1.00
2018-03-01T20:13:19.446Z,1.00
2018-03-01T20:15:46.909Z,1.00
2018-03-01T20:18:14.484Z,1.00
2018-03-01T20:20:42.930Z,0.90
2018-03-01T20:23:11.228Z,0.80
2018-03-01T20:25:38.690Z,0.80
2018-03-01T20:28:06.150Z,0.80
2018-03-01T20:30:34.654Z,0.70
2018-03-01T20:33:02.116Z,0.70
2018-03-01T20:35:29.569Z,0.60
2018-03-01T20:37:57.050Z,0.60
2018-03-01T20:40:24.507Z,0.50
2018-03-01T20:42:51.990Z,0.40
2018-03-01T20:45:20.211Z,0.30
2018-03-01T20:47:47.657Z,0.30
2018-03-01T20:50:15.112Z,0.30
2018-03-01T20:52:42.576Z,0.20
2018-03-01T20:55:10.041Z,0.30
2018-03-01T20:57:37.493Z,0.30
2018-03-01T21:00:04.960Z,0.30
2018-03-01T21:02:32.404Z,0.20
2018-03-01T21:04:59.934Z,0.20
2018-03-01T21:07:27.375Z,0.10
2018-03-01T21:09:55.600Z,0.00
2018-03-01T21:12:23.131Z,0.00
2018-03-01T21:14:50.586Z,0.00
2018-03-01T21:17:18.034Z,0.00
2018-03-01T21:19:45.511Z,0.00
2018-03-01T21:22:13.056Z,0.00
2018-03-01T21:24:40.498Z,-0.10
2018-03-01T21:27:08.726Z,-0.10
2018-03-01T21:29:36.168Z,-0.10
2018-03-01T21:32:03.734Z,0.00
2018-03-01T21:34:31.184Z,-0.10
2018-03-01T21:36:58.640Z,-0.10
2018-03-01T21:39:26.086Z,-0.10
2018-03-01T21:41:53.629Z,-0.20
2018-03-01T21:44:21.073Z,-0.20
2018-03-01T21:47:01.292Z,-0.20
2018-03-01T21:49:28.749Z,-0.20
2018-03-01T21:51:56.197Z,-0.20
2018-03-01T21:54:23.662Z,-0.10
2018-03-01T21:56:51.109Z,-0.10
2018-03-01T21:59:18.634Z,-0.20
2018-03-01T22:01:46.115Z,-0.20
2018-03-01T22:04:14.292Z,-0.30
2018-03-01T22:06:41.732Z,-0.30
2018-03-01T22:09:09.198Z,-0.30
2018-03-01T22:11:36.664Z,-0.20
2018-03-01T22:14:04.118Z,-0.20
2018-03-01T22:16:31.644Z,-0.20
2018-03-01T22:18:59.993Z,-0.30
2018-03-01T22:21:27.515Z,-0.30
2018-03-01T22:23:55.040Z,-0.30
2018-03-01T22:26:23.321Z,-0.30
2018-03-01T22:28:51.544Z,-0.40
2018-03-01T22:31:18.987Z,-0.40
2018-03-01T22:33:46.435Z,-0.50
2018-03-01T22:36:13.955Z,-0.50
2018-03-01T22:38:42.244Z,-0.40
2018-03-01T22:41:09.693Z,-0.40
2018-03-01T22:43:37.914Z,-0.40
2018-03-01T22:46:05.366Z,-0.40
2018-03-01T22:48:32.812Z,-0.50
2018-03-01T22:51:00.290Z,-0.40
2018-03-01T22:53:27.742Z,-0.40
2018-03-01T22:55:55.220Z,-0.40
2018-03-01T22:58:23.477Z,-0.50
2018-03-01T23:00:53.741Z,-0.60
2018-03-01T23:03:21.190Z,-0.50
2018-03-01T23:05:48.646Z,-0.40
2018-03-01T23:08:16.084Z,-0.50
2018-03-01T23:10:43.547Z,-0.40
2018-03-01T23:13:10.989Z,-0.50
2018-03-01T23:15:38.441Z,-0.50
2018-03-01T23:18:05.882Z,-0.50
2018-03-01T23:20:33.338Z,-0.60
2018-03-01T23:23:01.562Z,-0.70
2018-03-01T23:25:29.018Z,-0.70
2018-03-01T23:27:56.478Z,-0.70
2018-03-01T23:30:23.933Z,-0.70
2018-03-01T23:32:51.384Z,-0.70
2018-03-01T23:35:18.838Z,-0.70
2018-03-01T23:37:46.299Z,-0.60
2018-03-01T23:40:13.752Z,-0.60
2018-03-01T23:42:41.212Z,-0.60
2018-03-01T23:45:08.661Z,-0.60
2018-03-01T23:47:36.108Z,-0.60
2018-03-01T23:50:03.560Z,-0.60
2018-03-01T23:52:31.010Z,-0.60
2018-03-01T23:54:58.473Z,-0.60
2018-03-01T23:57:25.930Z,-0.70
2018-03-01T23:59:53.371Z,-0.70
